Time;durP1;ratioP1;P1;durP2;ratioP2;P2;SDS_P1;SDS_P2;PMS_P1;PMS_P2;Temp;Humidity;BMP_temperature;BMP_pressure;BME280_temperature;BME280_humidity;BME280_pressure;Samples;Min_cycle;Max_cycle;Signal;HPM_P1;HPM_P2
2022/05/14 00:02:23;;;;;;;15.55;6.20;;;;;;;13.11;69.64;99093.94;5091836;28;20471;-90
2022/05/14 00:04:49;;;;;;;14.27;5.38;;;;;;;12.98;71.12;99089.94;5089623;28;20390;-91
2022/05/14 00:07:15;;;;;;;13.50;5.68;;;;;;;12.96;70.67;99097.97;5092051;28;20066;-92
2022/05/14 00:09:41;;;;;;;16.80;6.13;;;;;;;13.00;70.27;99107.63;5091364;28;20086;-92
2022/05/14 00:15:09;;;;;;;13.40;5.47;;;;;;;12.85;70.14;99100.09;5144503;27;20383;-91
2022/05/14 00:17:35;;;;;;;14.57;5.82;;;;;;;12.89;71.03;99107.09;5111196;28;20405;-92
2022/05/14 00:20:01;;;;;;;14.43;5.75;;;;;;;12.80;70.77;99097.59;5110411;28;20040;-93
2022/05/14 00:22:26;;;;;;;13.18;6.00;;;;;;;12.78;70.88;99096.75;5111004;28;20048;-91
2022/05/14 00:24:52;;;;;;;14.10;5.40;;;;;;;12.70;70.49;99096.97;5110653;28;20108;-92
2022/05/14 00:27:18;;;;;;;14.73;6.05;;;;;;;12.65;71.64;99100.72;5110607;28;20067;-92
2022/05/14 00:29:43;;;;;;;13.07;5.10;;;;;;;12.53;72.08;99088.59;5110197;28;20492;-92
2022/05/14 00:32:11;;;;;;;17.15;5.57;;;;;;;12.50;71.81;99097.59;5111088;28;20528;-91
2022/05/14 00:34:36;;;;;;;11.48;4.72;;;;;;;12.48;71.44;99102.09;5110079;28;20040;-94
2022/05/14 00:37:03;;;;;;;16.65;5.95;;;;;;;12.42;72.25;99090.72;5112297;28;20166;-94
2022/05/14 00:39:28;;;;;;;12.27;5.57;;;;;;;12.46;71.28;99098.59;5112543;28;20035;-94
2022/05/14 00:41:54;;;;;;;20.70;4.88;;;;;;;12.46;70.57;99093.25;5111103;28;20477;-91
2022/05/14 00:44:20;;;;;;;12.32;5.03;;;;;;;12.54;69.75;99085.03;5110775;28;20066;-91
2022/05/14 00:46:49;;;;;;;9.52;5.03;;;;;;;12.49;69.21;99065.59;5109351;28;20032;-90
2022/05/14 00:49:20;;;;;;;10.25;4.68;;;;;;;12.58;69.28;99092.03;5109884;28;20497;-91
2022/05/14 00:51:46;;;;;;;13.88;5.25;;;;;;;12.46;69.86;99098.59;5107650;28;20042;-91
2022/05/14 00:54:15;;;;;;;12.52;5.03;;;;;;;12.34;70.71;99090.97;5105806;28;20460;-91
2022/05/14 00:56:46;;;;;;;13.75;5.30;;;;;;;12.35;70.90;99095.38;5110050;28;20469;-90
2022/05/14 00:59:15;;;;;;;15.57;5.78;;;;;;;12.37;70.77;99087.34;5107806;28;20057;-91
2022/05/14 01:01:42;;;;;;;9.50;5.18;;;;;;;12.26;71.99;99071.66;5109999;28;20072;-91
2022/05/14 01:04:09;;;;;;;18.65;5.90;;;;;;;12.29;72.43;99090.22;5110110;28;20042;-91
2022/05/14 01:06:38;;;;;;;15.55;5.90;;;;;;;12.19;72.83;99086.06;5106314;28;20126;-91
2022/05/14 01:09:06;;;;;;;12.93;5.63;;;;;;;12.15;73.11;99093.28;5109626;28;20432;-90
2022/05/14 01:11:34;;;;;;;12.98;5.57;;;;;;;12.09;72.99;99090.78;5109882;28;20039;-90
2022/05/14 01:14:00;;;;;;;14.73;5.93;;;;;;;12.04;73.36;99093.59;5109274;28;20040;-91
2022/05/14 01:16:26;;;;;;;12.75;5.20;;;;;;;12.02;72.68;99079.41;5109232;28;20044;-94
2022/05/14 01:18:52;;;;;;;14.77;5.20;;;;;;;11.84;73.34;99072.78;5109612;28;20047;-91
2022/05/14 01:21:24;;;;;;;10.73;5.90;;;;;;;11.81;73.87;99064.84;5109855;28;20048;-90
2022/05/14 01:26:59;;;;;;;14.73;5.65;;;;;;;11.70;74.54;99073.13;5143411;27;20903;-93
2022/05/14 01:29:26;;;;;;;17.98;6.95;;;;;;;11.79;74.47;99080.00;5111541;28;20044;-90
2022/05/14 01:31:53;;;;;;;16.40;6.00;;;;;;;11.82;74.27;99079.03;5109668;28;20429;-91
2022/05/14 01:34:21;;;;;;;19.83;6.15;;;;;;;11.91;73.68;99069.06;5110082;28;20036;-90
2022/05/14 01:36:47;;;;;;;16.55;6.00;;;;;;;11.77;73.96;99043.66;5108582;28;20036;-91
2022/05/14 01:39:13;;;;;;;16.70;6.60;;;;;;;11.79;74.65;99064.03;5110772;28;20036;-92
2022/05/14 01:41:39;;;;;;;13.07;5.57;;;;;;;11.71;74.74;99052.72;5110880;28;20126;-92
2022/05/14 01:44:07;;;;;;;14.25;5.97;;;;;;;11.73;75.13;99064.19;5111006;28;20027;-91
2022/05/14 01:46:33;;;;;;;15.25;5.45;;;;;;;11.72;74.96;99065.97;5111714;28;20043;-91
2022/05/14 01:48:59;;;;;;;17.25;5.90;;;;;;;11.66;76.16;99058.16;5112400;28;20050;-91
2022/05/14 01:51:25;;;;;;;12.30;5.43;;;;;;;11.61;75.94;99049.41;5110715;28;20135;-91
2022/05/14 01:53:51;;;;;;;14.57;6.47;;;;;;;11.67;75.98;99061.72;5110297;28;20036;-91
2022/05/14 01:56:18;;;;;;;17.60;7.18;;;;;;;11.58;77.13;99081.47;5110766;28;20040;-92
2022/05/14 01:58:44;;;;;;;17.60;6.18;;;;;;;11.51;77.75;99080.75;5110499;28;20048;-93
2022/05/14 02:01:13;;;;;;;14.48;6.22;;;;;;;11.52;76.97;99078.97;5109655;28;20036;-93
2022/05/14 02:03:40;;;;;;;13.88;5.90;;;;;;;11.45;76.88;99064.03;5110358;28;20036;-91
2022/05/14 02:06:06;;;;;;;16.05;6.13;;;;;;;11.37;77.98;99058.06;5109984;28;20397;-90
2022/05/14 02:08:32;;;;;;;17.13;6.65;;;;;;;11.38;77.63;99065.13;5110139;28;20039;-89
2022/05/14 02:10:58;;;;;;;14.82;6.97;;;;;;;11.47;77.26;99072.88;5109755;28;20048;-91
2022/05/14 02:13:24;;;;;;;16.15;6.45;;;;;;;11.37;77.73;99055.41;5110158;28;20097;-90
2022/05/14 02:15:50;;;;;;;16.25;6.78;;;;;;;11.33;78.61;99062.56;5110028;28;20110;-90
2022/05/14 02:18:19;;;;;;;12.93;6.97;;;;;;;11.35;79.27;99062.56;5110211;28;20071;-93
2022/05/14 02:20:44;;;;;;;14.20;6.30;;;;;;;11.33;79.07;99062.56;5110079;28;20046;-91
2022/05/14 02:23:12;;;;;;;11.25;6.38;;;;;;;11.31;79.22;99067.94;5109824;28;20435;-91
2022/05/14 02:25:38;;;;;;;16.85;6.68;;;;;;;11.25;79.37;99067.22;5109674;28;20047;-91
2022/05/14 02:28:04;;;;;;;21.35;6.63;;;;;;;11.24;80.04;99071.69;5109709;28;20032;-91
2022/05/14 02:30:30;;;;;;;19.83;6.10;;;;;;;11.09;80.22;99045.44;5109705;28;20059;-91
2022/05/14 02:32:56;;;;;;;19.33;6.85;;;;;;;11.13;80.47;99068.41;5109768;28;20072;-91
2022/05/14 02:35:23;;;;;;;20.48;7.32;;;;;;;11.17;80.41;99077.16;5109120;28;20516;-91
2022/05/14 02:37:49;;;;;;;19.77;6.97;;;;;;;11.05;79.84;99065.06;5098636;28;20036;-93
2022/05/14 02:40:15;;;;;;;18.35;7.05;;;;;;;11.06;80.05;99066.78;5095181;28;20040;-92
2022/05/14 02:42:40;;;;;;;16.00;6.50;;;;;;;10.95;80.00;99064.41;5095286;28;20039;-91
2022/05/14 02:45:08;;;;;;;15.88;6.35;;;;;;;11.07;79.80;99066.75;5095721;28;20040;-92
2022/05/14 02:47:34;;;;;;;19.90;8.15;;;;;;;11.17;80.05;99074.50;5095106;28;20036;-92
2022/05/14 02:50:00;;;;;;;14.40;7.05;;;;;;;11.21;79.81;99069.09;5095715;28;20546;-93
2022/05/14 02:52:27;;;;;;;16.67;6.90;;;;;;;11.13;79.46;99067.53;5095691;28;20061;-92
2022/05/14 02:54:53;;;;;;;16.35;7.03;;;;;;;11.03;79.75;99056.22;5095803;28;20045;-92
2022/05/14 02:57:19;;;;;;;18.50;7.15;;;;;;;11.02;80.05;99065.13;5095796;28;20036;-92
2022/05/14 02:59:44;;;;;;;20.77;6.90;;;;;;;10.84;81.58;99062.00;5095767;28;20056;-93
2022/05/14 03:02:10;;;;;;;14.90;6.70;;;;;;;10.80;81.95;99057.66;5095664;28;20036;-91
2022/05/14 03:04:38;;;;;;;15.57;7.22;;;;;;;10.85;81.71;99068.19;5095806;28;20048;-92
2022/05/14 03:07:06;;;;;;;13.68;6.75;;;;;;;10.77;81.87;99062.16;5096829;28;20501;-93
2022/05/14 03:09:34;;;;;;;17.53;6.60;;;;;;;10.62;81.17;99044.78;5096882;28;20074;-93
2022/05/14 03:12:00;;;;;;;13.68;5.78;;;;;;;10.71;81.67;99060.50;5096193;28;20064;-93
2022/05/14 03:14:26;;;;;;;25.17;7.57;;;;;;;10.69;81.60;99052.59;5096670;28;20071;-92
2022/05/14 03:16:51;;;;;;;16.25;6.95;;;;;;;10.65;82.22;99058.03;5096730;28;20115;-93
2022/05/14 03:19:18;;;;;;;15.27;6.63;;;;;;;10.47;82.61;99038.00;5097037;28;20067;-93
2022/05/14 03:21:44;;;;;;;15.68;7.20;;;;;;;10.61;83.41;99075.81;5096667;28;20066;-92
2022/05/14 03:24:10;;;;;;;19.02;7.50;;;;;;;10.56;82.80;99068.84;5096274;28;20036;-92
2022/05/14 03:26:38;;;;;;;22.83;7.63;;;;;;;10.53;82.98;99064.47;5095898;28;20040;-92
2022/05/14 03:29:03;;;;;;;20.65;7.40;;;;;;;10.53;82.38;99066.25;5095014;28;20807;-92
2022/05/14 03:31:31;;;;;;;19.75;8.35;;;;;;;10.52;83.10;99075.13;5094919;28;20036;-93
2022/05/14 03:33:57;;;;;;;25.50;7.57;;;;;;;10.36;83.39;99046.22;5095869;28;20502;-92
2022/05/14 03:36:23;;;;;;;17.35;7.45;;;;;;;10.39;83.22;99051.50;5095988;28;20063;-92
2022/05/14 03:38:49;;;;;;;23.20;7.75;;;;;;;10.42;83.58;99074.47;5096693;28;20040;-93
2022/05/14 03:41:16;;;;;;;22.02;6.75;;;;;;;10.37;82.91;99074.56;5097235;28;20051;-92
2022/05/14 03:43:44;;;;;;;15.13;7.00;;;;;;;10.31;83.02;99060.53;5096813;28;20047;-93
2022/05/14 03:46:10;;;;;;;15.85;7.03;;;;;;;10.15;83.91;99059.94;5096486;28;20059;-93
2022/05/14 03:48:36;;;;;;;17.45;7.45;;;;;;;10.20;84.19;99079.34;5096042;28;20074;-93
2022/05/14 03:51:02;;;;;;;16.67;6.78;;;;;;;10.17;84.44;99082.03;5095701;28;20044;-93
2022/05/14 03:53:29;;;;;;;18.80;6.93;;;;;;;10.13;84.86;99073.28;5095579;28;20040;-93
2022/05/14 03:55:55;;;;;;;20.30;8.27;;;;;;;10.20;84.08;99076.69;5095946;28;20051;-94
2022/05/14 03:58:21;;;;;;;17.75;7.35;;;;;;;10.18;84.42;99067.88;5095658;28;20040;-93
2022/05/14 04:00:49;;;;;;;18.63;7.50;;;;;;;10.26;84.28;99081.88;5095377;28;20100;-93
2022/05/14 04:03:15;;;;;;;24.65;8.05;;;;;;;10.24;84.89;99089.88;5095208;28;20525;-93
2022/05/14 04:05:41;;;;;;;17.20;7.55;;;;;;;10.03;85.42;99069.91;5095401;28;20036;-92
2022/05/14 04:08:07;;;;;;;15.07;7.38;;;;;;;10.19;85.20;99093.50;5095437;28;20063;-92
2022/05/14 04:10:33;;;;;;;24.77;7.32;;;;;;;10.22;85.48;99102.31;5095313;28;20086;-93
2022/05/14 04:12:59;;;;;;;16.60;7.15;;;;;;;10.25;85.35;99098.72;5093982;28;20130;-94
2022/05/14 04:15:26;;;;;;;22.75;7.30;;;;;;;10.41;84.06;99115.25;5095251;28;20044;-92
2022/05/14 04:17:54;;;;;;;21.65;8.48;;;;;;;10.44;83.80;99110.75;5095165;28;20501;-93
2022/05/14 04:20:21;;;;;;;21.95;8.48;;;;;;;10.41;83.48;99104.59;5094836;28;20047;-93
2022/05/14 04:22:47;;;;;;;16.02;7.45;;;;;;;10.33;83.19;99091.50;5095135;28;20131;-92
2022/05/14 04:25:13;;;;;;;18.85;7.45;;;;;;;10.38;83.51;99100.25;5094620;28;20093;-93
2022/05/14 04:27:41;;;;;;;14.55;6.82;;;;;;;10.43;82.80;99093.06;5094723;28;20040;-92
2022/05/14 04:30:09;;;;;;;21.58;8.20;;;;;;;10.43;83.14;99089.50;5094800;28;20093;-94
2022/05/14 04:32:35;;;;;;;18.63;8.20;;;;;;;10.55;83.19;99099.00;5094793;28;20561;-92
2022/05/14 04:35:03;;;;;;;18.30;7.00;;;;;;;10.61;83.59;99112.19;5096045;28;20063;-92
2022/05/14 04:37:28;;;;;;;18.15;7.85;;;;;;;10.62;83.48;99113.91;5096236;28;20036;-93
2022/05/14 04:39:54;;;;;;;20.17;7.13;;;;;;;10.62;84.28;99112.13;5096279;28;20044;-93
2022/05/14 04:42:20;;;;;;;22.33;7.78;;;;;;;10.69;84.45;99121.75;5094910;28;20043;-93
2022/05/14 04:44:46;;;;;;;16.00;6.97;;;;;;;10.65;83.99;99095.25;5095830;28;20576;-93
2022/05/14 04:47:12;;;;;;;21.65;7.65;;;;;;;10.85;83.45;99116.09;5096012;28;20123;-92
2022/05/14 04:49:38;;;;;;;16.10;7.03;;;;;;;10.94;82.95;99109.69;5086812;28;20040;-92
2022/05/14 04:52:06;;;;;;;17.92;6.50;;;;;;;11.07;82.89;99117.31;5094105;28;20523;-92
2022/05/14 04:54:32;;;;;;;17.77;7.70;;;;;;;11.15;82.40;99119.81;5094029;28;20043;-93
2022/05/14 04:56:57;;;;;;;21.65;8.75;;;;;;;11.36;81.21;99128.19;5094151;28;20123;-92
2022/05/14 04:59:23;;;;;;;21.35;7.75;;;;;;;11.37;80.40;99119.31;5093798;28;20512;-93
2022/05/14 05:04:49;;;;;;;26.67;8.68;;;;;;;12.61;73.75;99120.41;5125125;27;20364;-91
2022/05/14 05:07:14;;;;;;;24.15;7.90;;;;;;;13.14;71.68;99128.53;5120736;28;20370;-92
2022/05/14 05:09:40;;;;;;;20.73;7.13;;;;;;;13.47;69.16;99115.94;5118596;28;20043;-91
2022/05/14 05:12:07;;;;;;;16.90;6.97;;;;;;;13.85;67.25;99110.22;5130766;28;20531;-94
2022/05/14 05:14:34;;;;;;;19.17;7.20;;;;;;;14.20;65.24;99122.31;5122721;28;20561;-92
2022/05/14 05:17:00;;;;;;;17.55;7.32;;;;;;;14.48;65.87;99137.38;5123717;27;20062;-92
2022/05/14 05:19:38;;;;;;;19.13;7.60;;;;;;;14.76;64.41;99130.06;5127770;28;20042;-91
2022/05/14 05:22:08;;;;;;;17.83;7.10;;;;;;;15.11;63.40;99132.31;5116920;28;20050;-92
2022/05/14 05:24:35;;;;;;;11.65;6.82;;;;;;;15.26;63.19;99120.97;5120669;28;20043;-92
2022/05/14 05:27:06;;;;;;;22.92;7.32;;;;;;;15.29;62.09;99126.22;5126759;27;20032;-92
2022/05/14 05:29:36;;;;;;;15.80;6.47;;;;;;;15.40;61.34;99123.09;5121617;27;20043;-91
2022/05/14 05:32:02;;;;;;;19.45;6.47;;;;;;;15.55;61.53;99122.47;5125595;27;20035;-92
2022/05/14 05:34:29;;;;;;;15.90;6.65;;;;;;;15.70;60.17;99134.38;5118557;27;20122;-91
2022/05/14 05:36:56;;;;;;;18.25;7.53;;;;;;;15.76;59.95;99118.03;5118726;27;20044;-92
2022/05/14 05:39:23;;;;;;;18.65;7.72;;;;;;;15.77;59.88;99125.16;5116934;28;20042;-91
2022/05/14 05:41:49;;;;;;;20.45;6.35;;;;;;;15.93;59.31;99113.75;5119621;27;20112;-92
2022/05/14 05:44:15;;;;;;;21.75;6.63;;;;;;;15.92;58.65;99112.88;5124973;28;20122;-91
2022/05/14 05:46:40;;;;;;;17.30;6.55;;;;;;;16.04;59.39;99108.78;5117273;28;20052;-91
2022/05/14 05:49:07;;;;;;;13.52;5.60;;;;;;;16.15;57.75;99109.19;5123481;27;20097;-92
2022/05/14 05:51:33;;;;;;;13.73;6.72;;;;;;;15.94;59.04;99129.78;5123275;27;20089;-92
2022/05/14 05:56:59;;;;;;;16.77;6.30;;;;;;;15.27;60.76;99122.72;5098558;27;20369;-92
2022/05/14 05:59:28;;;;;;;13.30;5.43;;;;;;;15.30;61.32;99135.13;5090494;28;20040;-94
2022/05/14 06:01:54;;;;;;;16.90;5.35;;;;;;;15.02;61.27;99124.63;5096716;28;20127;-95
2022/05/14 06:04:20;;;;;;;13.27;5.78;;;;;;;15.35;60.39;99123.31;5100331;28;20032;-94
2022/05/14 06:06:47;;;;;;;14.63;5.38;;;;;;;15.68;60.07;99133.56;5098534;28;20528;-93
2022/05/14 06:09:15;;;;;;;15.73;5.90;;;;;;;15.91;59.05;99123.69;5093688;28;20032;-92
2022/05/14 06:11:42;;;;;;;15.37;5.37;;;;;;;16.23;58.74;99144.59;5097371;28;20048;-93
2022/05/14 06:14:09;;;;;;;14.13;5.80;;;;;;;16.40;57.66;99113.47;5097214;28;20044;-92
2022/05/14 06:16:35;;;;;;;18.40;5.88;;;;;;;16.64;56.17;99127.56;5098777;28;20041;-92
2022/05/14 06:19:01;;;;;;;15.07;5.47;;;;;;;16.94;54.84;99133.38;5091158;28;20036;-92
2022/05/14 06:21:27;;;;;;;15.13;5.90;;;;;;;17.04;54.90;99139.16;5093428;28;20032;-92
2022/05/14 06:23:59;;;;;;;16.90;5.60;;;;;;;17.33;53.91;99135.09;5093066;28;20040;-91
2022/05/14 06:26:37;;;;;;;14.25;6.18;;;;;;;17.31;53.76;99131.59;5092103;28;20456;-91
2022/05/14 06:29:03;;;;;;;14.85;5.35;;;;;;;17.42;54.23;99128.38;5092057;28;20070;-91
2022/05/14 06:31:31;;;;;;;18.05;6.20;;;;;;;17.56;54.18;99131.25;5089804;28;20414;-93
2022/05/14 06:33:56;;;;;;;13.55;5.57;;;;;;;17.84;53.27;99133.44;5090177;28;20056;-93
2022/05/14 06:36:22;;;;;;;12.75;6.00;;;;;;;17.92;52.22;99129.50;5092451;28;20067;-93
2022/05/14 06:38:48;;;;;;;13.43;6.03;;;;;;;17.77;53.36;99131.97;5096023;28;20074;-93
2022/05/14 06:41:14;;;;;;;14.55;5.78;;;;;;;17.78;53.10;99144.50;5097451;28;20051;-91
2022/05/14 06:43:41;;;;;;;15.00;5.90;;;;;;;17.61;54.09;99139.09;5100228;28;20044;-92
2022/05/14 06:46:07;;;;;;;14.52;5.55;;;;;;;17.63;52.17;99132.69;5092235;28;20082;-91
2022/05/14 06:48:34;;;;;;;12.93;5.57;;;;;;;17.69;52.98;99136.88;5095997;28;20040;-92
2022/05/14 06:51:05;;;;;;;18.88;6.75;;;;;;;17.62;53.71;99136.31;5095084;28;20417;-93
2022/05/14 06:53:34;;;;;;;12.90;6.18;;;;;;;17.54;53.78;99132.25;5092327;28;20068;-92
2022/05/14 06:56:01;;;;;;;15.27;5.50;;;;;;;17.76;53.94;99141.03;5093510;28;20056;-92
2022/05/14 06:58:32;;;;;;;16.42;5.50;;;;;;;17.95;53.45;99146.34;5089014;28;20094;-92
2022/05/14 07:00:58;;;;;;;15.45;6.53;;;;;;;17.96;52.37;99141.84;5095083;28;20115;-92
2022/05/14 07:09:28;;;;;;;15.82;6.15;;;;;;;18.61;50.05;99142.88;5097624;27;20361;-92
2022/05/14 07:11:56;;;;;;;13.45;6.10;;;;;;;18.53;50.20;99131.66;5089050;28;20071;-92
2022/05/14 07:14:23;;;;;;;22.05;7.57;;;;;;;18.45;49.75;99132.06;5092297;28;20048;-92
2022/05/14 07:16:50;;;;;;;23.30;7.32;;;;;;;18.64;50.29;99148.09;5090432;28;20498;-91
2022/05/14 07:19:16;;;;;;;15.30;6.40;;;;;;;18.83;49.55;99129.16;5097890;28;20037;-92
2022/05/14 07:21:45;;;;;;;17.63;6.65;;;;;;;19.06;48.23;99133.25;5094606;28;20074;-94
2022/05/14 07:24:15;;;;;;;22.30;7.03;;;;;;;19.11;46.58;99124.91;5091396;28;20040;-92
2022/05/14 07:26:43;;;;;;;17.92;6.53;;;;;;;19.19;46.09;99130.75;5092187;28;20043;-92
2022/05/14 07:29:11;;;;;;;21.55;6.80;;;;;;;19.21;46.20;99127.94;5093102;28;20390;-92
2022/05/14 07:31:38;;;;;;;25.80;6.50;;;;;;;19.25;45.98;99127.69;5097000;28;20486;-92
2022/05/14 07:34:05;;;;;;;17.23;6.25;;;;;;;19.31;45.10;99118.38;5096696;28;20035;-92
2022/05/14 07:36:35;;;;;;;16.25;6.20;;;;;;;19.47;46.97;99121.94;5091432;28;20567;-91
2022/05/14 07:39:04;;;;;;;18.50;7.03;;;;;;;19.46;46.75;99119.34;5096640;28;20044;-89
2022/05/14 07:41:32;;;;;;;18.60;6.90;;;;;;;19.35;46.42;99106.47;5096010;28;20048;-91
2022/05/14 07:44:01;;;;;;;16.45;6.85;;;;;;;19.54;47.06;99111.66;5093096;28;20040;-92
2022/05/14 07:46:32;;;;;;;16.40;6.18;;;;;;;19.89;46.18;99123.09;5092583;28;20040;-92
2022/05/14 07:49:00;;;;;;;18.80;6.88;;;;;;;20.01;45.57;99126.03;5089995;28;20042;-90
2022/05/14 07:51:27;;;;;;;15.65;6.63;;;;;;;20.10;44.22;99120.94;5097031;28;20689;-93
2022/05/14 07:53:54;;;;;;;18.25;6.45;;;;;;;19.98;44.89;99126.22;5095975;28;20060;-91
2022/05/14 07:56:20;;;;;;;13.63;6.43;;;;;;;19.45;44.93;99121.16;5089596;28;20071;-92
2022/05/14 07:58:47;;;;;;;17.50;6.28;;;;;;;19.74;45.30;99102.44;5095244;28;20028;-92
2022/05/14 08:01:15;;;;;;;16.45;6.25;;;;;;;20.10;45.46;99120.94;5092028;28;20040;-92
2022/05/14 08:03:41;;;;;;;23.98;6.53;;;;;;;20.33;44.96;99107.00;5099092;28;20505;-93
2022/05/14 08:06:09;;;;;;;18.40;6.40;;;;;;;20.53;44.40;99109.31;5093318;28;20036;-92
2022/05/14 08:08:36;;;;;;;;;;;;;;;20.77;42.95;99125.84;5089921;28;20774;-92
2022/05/14 08:11:15;;;;;;;17.88;6.55;;;;;;;20.87;42.83;99115.34;5092730;28;19946;-92
2022/05/14 08:13:41;;;;;;;15.18;5.97;;;;;;;21.02;41.69;99106.25;5093641;28;20109;-91
2022/05/14 08:16:07;;;;;;;18.50;6.15;;;;;;;20.93;42.43;99104.13;5094431;28;20044;-91
2022/05/14 08:18:35;;;;;;;14.23;5.85;;;;;;;20.98;42.46;99085.78;5091134;28;20051;-91
2022/05/14 08:27:10;;;;;;;18.67;7.10;;;;;;;21.42;42.08;99100.94;5109127;27;20420;-91
2022/05/14 08:29:36;;;;;;;18.63;6.10;;;;;;;21.52;39.65;99107.47;5108460;28;20035;-90
2022/05/14 08:32:04;;;;;;;18.02;6.28;;;;;;;21.58;39.07;99098.09;5108752;28;20043;-89
2022/05/14 08:34:30;;;;;;;16.48;6.00;;;;;;;21.29;40.57;99081.91;5109701;28;20046;-90
2022/05/14 08:36:57;;;;;;;18.73;6.18;;;;;;;21.48;39.72;99096.97;5109471;28;20043;-91
2022/05/14 08:39:27;;;;;;;20.33;7.55;;;;;;;21.69;40.24;99089.25;5110823;28;20089;-91
2022/05/14 08:41:54;;;;;;;21.98;6.90;;;;;;;21.88;39.80;99084.31;5109553;28;20411;-91
2022/05/14 08:44:24;;;;;;;23.85;6.68;;;;;;;22.10;39.02;99085.56;5109368;28;20039;-90
2022/05/14 08:46:54;;;;;;;20.05;7.05;;;;;;;22.38;39.06;99084.50;5109715;28;20039;-92
2022/05/14 08:49:24;;;;;;;19.60;6.25;;;;;;;22.40;38.85;99081.66;5110113;28;20115;-91
2022/05/14 08:51:52;;;;;;;20.13;6.15;;;;;;;22.58;38.52;99076.81;5109505;28;20130;-91
2022/05/14 08:54:18;;;;;;;19.63;7.57;;;;;;;22.13;38.66;99082.63;5107758;28;20074;-92
2022/05/14 08:56:51;;;;;;;24.05;7.20;;;;;;;21.95;38.82;99073.94;5108485;28;20040;-90
2022/05/14 08:59:41;;;;;;;19.60;7.15;;;;;;;21.76;38.07;99085.16;5108962;28;20500;-94
2022/05/14 09:02:13;;;;;;;24.58;6.75;;;;;;;21.61;38.54;99072.66;5107737;28;20050;-91
2022/05/14 09:04:39;;;;;;;17.92;6.80;;;;;;;21.87;38.14;99066.31;5106376;28;20069;-93
2022/05/14 09:07:07;;;;;;;22.88;6.18;;;;;;;21.82;36.85;99054.97;5108604;28;20040;-92
2022/05/14 09:09:35;;;;;;;20.88;6.32;;;;;;;22.03;37.30;99078.81;5110574;28;20111;-93
2022/05/14 09:12:03;;;;;;;14.75;6.22;;;;;;;22.03;38.84;99078.81;5109979;28;20038;-93
2022/05/14 09:14:34;;;;;;;17.65;7.28;;;;;;;22.49;38.11;99068.34;5109558;28;20043;-91
2022/05/14 09:17:07;;;;;;;34.50;7.55;;;;;;;22.61;38.35;99073.88;5108528;28;20044;-92
2022/05/14 09:19:36;;;;;;;19.58;6.68;;;;;;;22.33;39.54;99075.81;5109332;28;20485;-92
2022/05/14 09:22:13;;;;;;;20.25;7.47;;;;;;;22.21;39.03;99058.56;5108856;28;20036;-92
2022/05/14 09:24:43;;;;;;;20.50;7.65;;;;;;;22.32;39.50;99080.38;5109623;28;20089;-93
2022/05/14 09:27:13;;;;;;;18.17;6.85;;;;;;;22.44;38.56;99054.25;5109021;28;20109;-92
2022/05/14 09:29:45;;;;;;;18.13;7.28;;;;;;;22.35;39.13;99038.66;5108685;28;20440;-92
2022/05/14 09:32:28;;;;;;;22.23;7.05;;;;;;;22.61;40.34;99060.31;5109103;28;20043;-91
2022/05/14 09:35:04;;;;;;;21.05;7.50;;;;;;;22.57;38.52;99054.22;5107850;28;20085;-91
2022/05/14 09:37:30;;;;;;;21.45;7.15;;;;;;;22.71;37.73;99064.97;5098688;28;20032;-92
2022/05/14 09:40:01;;;;;;;18.30;7.30;;;;;;;22.34;38.55;99028.81;5096964;28;20043;-92
2022/05/14 09:42:37;;;;;;;21.20;6.30;;;;;;;22.77;38.15;99040.13;5094610;28;20043;-91
2022/05/14 09:45:18;;;;;;;19.42;7.15;;;;;;;23.14;37.25;99044.72;5096252;28;20063;-93
2022/05/14 09:47:50;;;;;;;19.50;6.75;;;;;;;23.54;37.33;99057.97;5095037;28;20425;-92
2022/05/14 09:50:19;;;;;;;19.15;6.70;;;;;;;23.83;36.84;99050.34;5094789;28;20067;-92
2022/05/14 09:52:55;;;;;;;23.67;6.75;;;;;;;23.58;36.04;99060.34;5094309;28;20139;-92
2022/05/14 09:55:23;;;;;;;27.98;7.20;;;;;;;23.43;36.13;99055.22;5093556;28;20032;-93
2022/05/14 09:57:53;;;;;;;16.53;7.03;;;;;;;23.58;36.37;99049.47;5094387;28;20566;-91
2022/05/14 10:00:26;;;;;;;18.00;6.75;;;;;;;23.99;37.04;99053.59;5094576;28;20322;-92
2022/05/14 10:03:00;;;;;;;17.35;7.28;;;;;;;23.92;36.81;99029.75;5096320;28;20044;-94
2022/05/14 10:05:51;;;;;;;28.02;7.65;;;;;;;24.00;37.04;99035.44;5094382;28;20101;-92
2022/05/14 10:08:29;;;;;;;19.20;6.97;;;;;;;24.29;34.44;99033.16;5095336;28;20036;-91
2022/05/14 10:11:00;;;;;;;;;;;;;;;24.49;34.43;99045.19;5091853;28;20044;-93
2022/05/14 10:13:35;;;;;;;15.23;6.22;;;;;;;23.59;33.76;99044.91;5094061;28;19924;-92
2022/05/14 10:16:07;;;;;;;19.42;6.03;;;;;;;23.99;35.36;99042.75;5094676;28;20032;-93
2022/05/14 10:18:58;;;;;;;20.10;6.93;;;;;;;24.28;33.32;99030.56;5096123;28;20040;-94
2022/05/14 10:21:34;;;;;;;17.73;5.85;;;;;;;24.55;32.33;99043.84;5094992;28;20064;-91
2022/05/14 10:27:24;;;;;;;18.42;5.80;;;;;;;24.74;31.83;99038.63;5149937;27;20123;-90
2022/05/14 10:30:02;;;;;;;14.80;5.60;;;;;;;24.64;30.86;99029.50;5151221;27;20038;-92
2022/05/14 10:32:30;;;;;;;16.67;5.65;;;;;;;23.84;31.27;99038.50;5152744;27;20043;-94
2022/05/14 10:35:02;;;;;;;12.52;5.13;;;;;;;24.06;31.38;99039.53;5152918;27;20043;-92
2022/05/14 10:37:31;;;;;;;13.45;5.18;;;;;;;24.35;30.26;99020.91;5150996;27;20045;-90
2022/05/14 10:40:06;;;;;;;14.55;5.57;;;;;;;24.24;29.87;99010.91;5148779;27;20064;-92
2022/05/14 10:42:43;;;;;;;14.23;5.32;;;;;;;24.06;32.22;99013.25;5150546;27;20036;-90
2022/05/14 10:45:14;;;;;;;15.38;5.95;;;;;;;23.38;32.13;99013.00;5150741;27;20031;-92
2022/05/14 10:47:45;;;;;;;14.45;5.68;;;;;;;23.38;31.51;99025.72;5148439;27;20039;-92
2022/05/14 10:50:16;;;;;;;14.27;5.50;;;;;;;23.66;31.55;99010.00;5151227;27;20102;-91
2022/05/14 10:52:44;;;;;;;15.18;5.70;;;;;;;24.03;30.72;99023.47;5151112;27;20053;-91
2022/05/14 10:55:18;;;;;;;14.65;5.35;;;;;;;24.44;30.39;99013.88;5149131;27;20031;-90
2022/05/14 10:57:48;;;;;;;15.30;5.53;;;;;;;24.28;29.63;98993.38;5149853;27;20122;-91
2022/05/14 11:00:39;;;;;;;12.80;5.22;;;;;;;24.73;29.83;99006.97;5148833;27;20076;-91
2022/05/14 11:03:11;;;;;;;13.30;5.35;;;;;;;24.42;29.75;99010.41;5147443;27;20047;-89
2022/05/14 11:05:51;;;;;;;19.65;5.97;;;;;;;24.14;31.55;99015.38;5151814;27;20145;-90
2022/05/14 11:08:29;;;;;;;14.27;6.22;;;;;;;24.48;33.47;99010.81;5150215;27;20035;-89
2022/05/14 11:11:04;;;;;;;21.00;6.32;;;;;;;24.22;32.71;99009.31;5150044;27;20050;-94
2022/05/14 11:13:34;;;;;;;17.67;6.47;;;;;;;24.17;34.00;98985.22;5151876;27;20039;-94
2022/05/14 11:16:02;;;;;;;18.85;6.50;;;;;;;24.18;33.56;99004.13;5150075;27;20059;-93
2022/05/14 11:18:28;;;;;;;17.45;6.03;;;;;;;23.91;32.82;99003.59;5152731;27;20043;-92
2022/05/14 11:20:57;;;;;;;11.60;5.00;;;;;;;24.35;32.52;99010.03;5149775;27;20045;-92
2022/05/14 11:23:23;;;;;;;20.85;5.80;;;;;;;24.08;31.64;98985.97;5153040;27;20047;-90
2022/05/14 11:26:04;;;;;;;14.75;5.43;;;;;;;24.67;31.97;99001.19;5148728;27;20064;-91
2022/05/14 11:28:32;;;;;;;15.45;5.85;;;;;;;24.64;30.79;98990.56;5150865;27;20920;-92
2022/05/14 11:31:14;;;;;;;14.30;5.32;;;;;;;24.50;30.17;98999.81;5151886;27;20067;-93
2022/05/14 11:33:44;;;;;;;16.10;5.40;;;;;;;24.33;30.60;98990.28;5147144;27;20096;-93
2022/05/14 11:36:22;;;;;;;11.55;5.38;;;;;;;24.26;31.12;98997.19;5149352;27;20445;-93
2022/05/14 11:39:05;;;;;;;13.57;5.60;;;;;;;24.29;33.99;98997.84;5137974;27;20047;-93
2022/05/14 11:41:35;;;;;;;18.20;6.10;;;;;;;24.67;32.82;98980.28;5136091;27;20047;-90
2022/05/14 11:44:06;;;;;;;11.13;5.60;;;;;;;24.68;32.39;98997.47;5141083;27;20067;-92
2022/05/14 11:46:39;;;;;;;12.82;5.70;;;;;;;24.51;32.55;98969.81;5138836;27;20416;-92
2022/05/14 11:49:11;;;;;;;14.52;5.05;;;;;;;24.64;30.53;98990.56;5136986;27;20039;-92
2022/05/14 11:51:43;;;;;;;13.80;4.68;;;;;;;24.57;31.14;98976.59;5139273;27;20142;-93
2022/05/14 11:54:15;;;;;;;14.80;5.63;;;;;;;24.15;31.86;98989.91;5138028;27;20129;-94
2022/05/14 11:56:48;;;;;;;14.73;6.28;;;;;;;24.31;32.64;98960.53;5135241;27;20043;-92
2022/05/14 11:59:25;;;;;;;16.67;5.25;;;;;;;24.43;32.37;98963.22;5135287;27;20381;-92
2022/05/14 12:01:52;;;;;;;13.18;5.47;;;;;;;24.12;31.92;98971.16;5131174;27;20039;-90